Fairbourne, United Kingdom
Current Conditions -  °F | °C
As of 7:50 AM on Thursday 29 Jan 2015 (Local Time) from EGOV Reporting Station
Rain Showers Rain Showers  
Wind Chill: 30°   Ceiling: 2700
Heat Index: 41°   Visibility: 6mi
Dew Point: 30°   Wind: 28mph
Humidity: 65%   Direction: 270°W
Pressure: 29.09"   Gusts: 45mph
Location:  52.7°N, 4.05°W
Report Text: EGOV 290750Z 27024G39KT 9999 -SHRA BKN027 05/M01 Q0985 BLU TEMPO 4000 SHRASN BKN012 GRN
Loading
Personal Weather Stations






























Interactive Weather Map New forecast layout! Learn more

10-Day Weather Forecast

Advertisements
Track Severe Weather on mobile